Time;durP1;ratioP1;P1;durP2;ratioP2;P2;SDS_P1;SDS_P2;PMS_P1;PMS_P2;Temp;Humidity;BMP_temperature;BMP_pressure;BME280_temperature;BME280_humidity;BME280_pressure;Samples;Min_cycle;Max_cycle;Signal;HPM_P1;HPM_P2
2022/07/19 00:01:43;;;;;;;4.55;2.53;;;;;;;17.44;62.79;99879.03;8381602;28;20048;-71
2022/07/19 00:05:44;;;;;;;5.50;3.03;;;;;;;17.31;63.00;99881.69;8396019;28;20048;-69
2022/07/19 00:09:45;;;;;;;7.13;3.42;;;;;;;17.15;63.41;99872.53;8410158;28;20049;-70
2022/07/19 00:13:46;;;;;;;7.78;3.00;;;;;;;17.07;63.67;99880.78;8371111;28;20048;-70
2022/07/19 00:17:48;;;;;;;7.63;2.88;;;;;;;16.95;64.31;99878.78;8385559;28;20127;-69
2022/07/19 00:21:49;;;;;;;10.35;3.35;;;;;;;16.84;64.73;99877.56;8379149;28;20079;-70
2022/07/19 00:25:50;;;;;;;10.38;3.15;;;;;;;16.75;64.73;99880.38;8400964;28;20052;-70
2022/07/19 00:29:51;;;;;;;7.05;2.88;;;;;;;16.67;64.56;99874.94;8389213;28;20053;-70
2022/07/19 00:33:52;;;;;;;8.93;3.28;;;;;;;16.58;65.06;99868.72;8395521;28;20118;-71
2022/07/19 00:37:53;;;;;;;11.10;2.97;;;;;;;16.50;65.10;99872.31;8388944;28;20052;-70
2022/07/19 00:41:54;;;;;;;9.35;3.03;;;;;;;16.46;65.27;99866.69;8377801;28;20075;-70
2022/07/19 00:45:55;;;;;;;8.48;2.90;;;;;;;16.37;65.43;99869.47;8394920;28;20045;-70
2022/07/19 00:49:57;;;;;;;7.63;3.20;;;;;;;16.31;65.74;99859.88;8386181;28;20143;-70
2022/07/19 00:54:00;;;;;;;10.30;3.13;;;;;;;16.27;65.86;99869.84;8389893;28;20098;-70
2022/07/19 00:58:02;;;;;;;7.72;3.20;;;;;;;16.24;65.89;99875.13;8387996;28;20045;-70
2022/07/19 01:02:03;;;;;;;6.53;3.10;;;;;;;16.23;65.80;99879.78;8368649;28;20051;-71
2022/07/19 01:06:04;;;;;;;6.15;2.53;;;;;;;16.19;66.09;99878.84;8395040;28;20131;-69
2022/07/19 01:10:07;;;;;;;5.35;3.40;;;;;;;16.12;66.20;99873.13;8393229;28;20041;-70
2022/07/19 01:14:07;;;;;;;7.70;3.00;;;;;;;16.05;66.33;99872.81;8386614;28;20045;-71
2022/07/19 01:18:09;;;;;;;11.80;3.13;;;;;;;16.03;66.31;99861.44;8388490;28;20049;-70
2022/07/19 01:22:10;;;;;;;5.15;2.97;;;;;;;15.92;66.52;99862.91;8372826;28;20416;-70
2022/07/19 01:26:11;;;;;;;6.53;3.17;;;;;;;15.82;66.93;99866.00;8391982;28;20060;-70
2022/07/19 01:30:14;;;;;;;6.68;2.78;;;;;;;15.75;67.67;99862.97;8390224;28;20072;-70
2022/07/19 01:34:15;;;;;;;7.10;3.05;;;;;;;15.68;67.89;99862.66;8382314;28;20424;-69
2022/07/19 01:38:16;;;;;;;12.90;3.13;;;;;;;15.64;67.95;99859.81;8375417;28;20040;-70
2022/07/19 01:42:17;;;;;;;11.75;3.53;;;;;;;15.58;67.92;99867.34;8373801;28;20045;-70
2022/07/19 01:46:17;;;;;;;8.85;3.10;;;;;;;15.58;67.92;99864.63;8387502;28;20518;-70
2022/07/19 01:50:19;;;;;;;11.27;3.00;;;;;;;15.58;68.13;99858.38;8379418;28;20058;-71
2022/07/19 01:54:19;;;;;;;7.22;3.15;;;;;;;15.60;68.59;99851.47;8378493;28;20065;-70
2022/07/19 01:58:20;;;;;;;9.48;3.17;;;;;;;15.67;68.44;99855.63;8383629;28;20102;-69
2022/07/19 02:02:22;;;;;;;8.32;3.08;;;;;;;15.74;68.77;99855.94;8396721;28;20048;-69
2022/07/19 02:06:23;;;;;;;9.35;3.30;;;;;;;15.80;68.48;99849.19;8368024;28;20110;-71
2022/07/19 02:10:23;;;;;;;13.07;4.05;;;;;;;15.84;68.87;99855.59;8380016;28;20094;-70
2022/07/19 02:14:24;;;;;;;9.25;3.08;;;;;;;15.90;68.46;99848.84;8396207;28;20502;-70
2022/07/19 02:18:25;;;;;;;8.05;3.10;;;;;;;15.93;68.40;99848.16;8393828;28;20053;-69
2022/07/19 02:22:26;;;;;;;13.10;3.70;;;;;;;15.97;68.69;99855.38;8382721;28;20076;-70
2022/07/19 02:26:27;;;;;;;9.60;3.40;;;;;;;16.01;68.88;99856.34;8376651;28;20063;-70
2022/07/19 02:30:28;;;;;;;9.68;3.47;;;;;;;16.07;68.81;99858.88;8384347;28;20516;-70
2022/07/19 02:34:29;;;;;;;9.05;3.25;;;;;;;16.11;69.02;99855.16;8386283;28;20125;-72
2022/07/19 02:38:31;;;;;;;12.60;3.42;;;;;;;16.12;68.96;99856.78;8383931;28;20048;-73
2022/07/19 02:42:32;;;;;;;8.50;3.25;;;;;;;16.15;69.07;99856.09;8393907;28;20059;-71
2022/07/19 02:46:33;;;;;;;10.70;3.40;;;;;;;16.21;69.06;99865.69;8385279;28;20052;-71
2022/07/19 02:50:33;;;;;;;10.98;3.67;;;;;;;16.27;68.79;99853.50;8389478;28;20094;-71
2022/07/19 02:54:35;;;;;;;12.73;3.72;;;;;;;16.33;68.78;99852.19;8383534;28;20048;-71
2022/07/19 02:58:35;;;;;;;9.07;3.78;;;;;;;16.38;68.69;99854.72;8387335;28;20055;-70
2022/07/19 03:02:36;;;;;;;9.02;3.90;;;;;;;16.43;68.69;99846.34;8388163;28;20472;-71
2022/07/19 03:06:37;;;;;;;10.48;4.00;;;;;;;16.45;68.35;99849.53;8386852;28;20060;-71
2022/07/19 03:10:38;;;;;;;11.68;3.90;;;;;;;16.46;68.20;99845.69;8381593;28;20049;-71
2022/07/19 03:14:39;;;;;;;9.10;3.58;;;;;;;16.50;68.20;99861.41;8373188;28;20077;-72
2022/07/19 03:18:40;;;;;;;9.63;3.70;;;;;;;16.51;68.49;99857.53;8379120;28;20476;-71
2022/07/19 03:22:41;;;;;;;10.30;3.80;;;;;;;16.52;68.61;99853.66;8375771;28;20049;-72
2022/07/19 03:26:42;;;;;;;17.13;3.88;;;;;;;16.54;68.39;99862.34;8383092;28;20064;-70
2022/07/19 03:30:44;;;;;;;8.07;3.72;;;;;;;16.54;68.17;99852.22;8390179;28;20057;-70
2022/07/19 03:34:45;;;;;;;10.10;4.38;;;;;;;16.58;68.33;99852.34;8374957;28;20476;-71
2022/07/19 03:38:46;;;;;;;8.50;3.85;;;;;;;16.61;68.02;99862.63;8383453;28;20122;-72
2022/07/19 03:42:47;;;;;;;9.82;3.90;;;;;;;16.64;67.70;99862.78;8380754;28;20128;-71
2022/07/19 03:46:48;;;;;;;8.02;3.67;;;;;;;16.68;67.22;99862.91;8380279;28;20114;-71
2022/07/19 03:50:49;;;;;;;10.15;4.40;;;;;;;16.70;67.25;99860.66;8394002;28;20048;-71
2022/07/19 03:54:50;;;;;;;9.30;4.22;;;;;;;16.71;67.14;99862.25;8389302;28;20098;-71
2022/07/19 03:58:51;;;;;;;12.10;4.38;;;;;;;16.74;67.08;99861.59;8374236;28;20489;-71
2022/07/19 04:02:52;;;;;;;11.75;4.47;;;;;;;16.73;67.11;99865.44;8378948;28;20045;-71
2022/07/19 04:06:53;;;;;;;11.10;4.20;;;;;;;16.74;67.27;99867.03;8364181;28;20049;-70
2022/07/19 04:10:54;;;;;;;13.63;4.70;;;;;;;16.76;67.17;99871.03;8384938;28;20041;-70
2022/07/19 04:14:55;;;;;;;11.30;4.63;;;;;;;16.79;67.13;99864.13;8389428;28;20048;-71
2022/07/19 04:18:56;;;;;;;9.13;4.70;;;;;;;16.80;66.97;99871.19;8383113;28;20055;-71
2022/07/19 04:22:57;;;;;;;11.52;4.50;;;;;;;16.81;66.94;99875.50;8378333;28;20397;-71
2022/07/19 04:26:58;;;;;;;8.43;4.55;;;;;;;16.81;66.92;99878.25;8401567;28;20044;-71
2022/07/19 04:30:59;;;;;;;10.98;4.95;;;;;;;16.79;66.96;99875.84;8410950;28;20040;-71
2022/07/19 04:35:01;;;;;;;13.32;4.93;;;;;;;16.76;67.43;99870.25;8390439;28;20045;-70
2022/07/19 04:39:02;;;;;;;10.23;4.85;;;;;;;16.70;67.66;99874.31;8390418;28;20049;-72
2022/07/19 04:43:03;;;;;;;9.57;4.50;;;;;;;16.72;67.50;99885.66;8390064;28;20074;-71
2022/07/19 04:47:04;;;;;;;12.00;4.78;;;;;;;16.71;67.49;99879.41;8388824;28;20040;-72
2022/07/19 04:51:05;;;;;;;12.75;5.10;;;;;;;16.75;67.80;99879.56;8349389;28;20056;-71
2022/07/19 04:55:07;;;;;;;10.45;5.45;;;;;;;16.85;67.57;99879.16;8399998;28;20135;-71
2022/07/19 04:59:08;;;;;;;15.00;4.88;;;;;;;17.00;67.37;99886.75;8394496;28;20094;-70
2022/07/19 05:03:09;;;;;;;14.55;5.85;;;;;;;17.22;67.11;99872.78;8391138;28;20049;-71
2022/07/19 05:07:10;;;;;;;16.08;4.82;;;;;;;17.40;66.53;99872.63;8401897;28;20102;-71
2022/07/19 05:11:13;;;;;;;13.10;5.18;;;;;;;17.50;66.92;99877.69;8391244;28;20043;-72
2022/07/19 05:15:14;;;;;;;12.00;4.32;;;;;;;17.57;66.71;99877.94;8392813;28;20041;-71
2022/07/19 05:19:16;;;;;;;10.70;4.30;;;;;;;17.63;66.62;99876.63;8395986;28;20117;-72
2022/07/19 05:23:17;;;;;;;16.85;5.07;;;;;;;17.72;66.81;99874.59;8400019;28;20137;-72
2022/07/19 05:27:19;;;;;;;9.63;4.22;;;;;;;17.83;66.55;99870.28;8399607;28;20056;-72
2022/07/19 05:31:20;;;;;;;15.18;4.90;;;;;;;17.92;66.50;99868.28;8398467;28;20048;-71
2022/07/19 05:35:21;;;;;;;12.95;4.78;;;;;;;18.01;66.70;99871.69;8397088;28;20053;-71
2022/07/19 05:39:22;;;;;;;15.95;5.32;;;;;;;18.14;66.95;99870.56;8394452;28;20065;-70
2022/07/19 05:43:23;;;;;;;13.93;4.68;;;;;;;18.30;67.10;99867.97;8392170;28;20044;-71
2022/07/19 05:47:24;;;;;;;10.57;5.43;;;;;;;18.45;67.01;99871.97;8398868;28;20496;-72
2022/07/19 05:51:25;;;;;;;10.20;5.40;;;;;;;18.54;66.89;99872.66;8399017;28;20036;-73
2022/07/19 05:55:26;;;;;;;12.00;5.55;;;;;;;18.61;66.89;99867.44;8393040;28;20472;-72
2022/07/19 05:59:27;;;;;;;13.98;5.95;;;;;;;18.68;66.76;99877.78;8375329;28;20070;-73
2022/07/19 06:03:28;;;;;;;10.43;5.03;;;;;;;18.87;66.65;99876.06;8397476;28;20060;-72
2022/07/19 06:07:29;;;;;;;11.98;5.22;;;;;;;19.07;66.59;99868.03;8388184;28;20087;-73
2022/07/19 06:11:30;;;;;;;24.48;5.20;;;;;;;19.18;66.33;99869.13;8376206;28;20117;-73
2022/07/19 06:15:31;;;;;;;16.23;4.97;;;;;;;19.18;66.42;99869.13;8383435;28;20182;-73
2022/07/19 06:19:32;;;;;;;10.55;4.47;;;;;;;19.16;66.77;99882.38;8396774;28;20056;-72
2022/07/19 06:23:33;;;;;;;12.00;4.35;;;;;;;19.15;66.63;99880.75;8390706;28;20514;-72
2022/07/19 06:27:34;;;;;;;15.25;3.92;;;;;;;19.13;66.60;99877.59;8382588;28;20048;-72
2022/07/19 06:31:35;;;;;;;8.27;4.20;;;;;;;19.16;66.77;99876.88;8397127;28;20436;-72
2022/07/19 06:35:36;;;;;;;11.82;3.78;;;;;;;19.23;66.07;99874.38;8396608;28;20041;-72
2022/07/19 06:39:37;;;;;;;11.38;4.13;;;;;;;19.22;66.44;99875.50;8387794;28;20041;-71
2022/07/19 06:43:39;;;;;;;13.82;4.15;;;;;;;19.20;66.22;99877.78;8382412;28;20138;-70
2022/07/19 06:47:40;;;;;;;12.60;3.88;;;;;;;19.34;65.96;99872.72;8396995;28;20052;-71
2022/07/19 06:51:41;;;;;;;14.00;3.88;;;;;;;19.55;65.22;99865.13;8364322;28;20080;-72
2022/07/19 06:55:42;;;;;;;11.35;3.60;;;;;;;19.78;64.07;99871.63;8383717;28;20129;-71
2022/07/19 06:59:43;;;;;;;10.32;3.95;;;;;;;20.02;62.48;99864.41;8377651;28;20053;-71
2022/07/19 07:03:45;;;;;;;8.73;3.60;;;;;;;20.26;60.78;99875.19;8393013;28;20131;-70
2022/07/19 07:07:47;;;;;;;10.48;3.05;;;;;;;20.62;58.41;99861.19;8397296;28;20088;-70
2022/07/19 07:11:49;;;;;;;12.38;2.85;;;;;;;21.03;54.93;99864.47;8381869;28;20136;-70
2022/07/19 07:15:50;;;;;;;8.82;3.40;;;;;;;21.39;53.54;99872.31;8388771;28;20175;-71
2022/07/19 07:19:51;;;;;;;6.47;3.28;;;;;;;21.51;53.78;99867.81;8385200;28;20053;-71
2022/07/19 07:23:52;;;;;;;10.40;3.30;;;;;;;21.55;54.65;99871.44;8382080;28;20504;-71
2022/07/19 07:27:53;;;;;;;10.30;2.90;;;;;;;21.56;53.99;99870.28;8394694;28;20040;-71
2022/07/19 07:31:54;;;;;;;7.78;2.97;;;;;;;21.78;52.32;99872.28;8377323;28;20470;-71
2022/07/19 07:35:55;;;;;;;6.20;2.55;;;;;;;22.09;49.29;99883.06;8421690;28;20040;-71
2022/07/19 07:39:56;;;;;;;3.92;2.38;;;;;;;22.36;47.42;99880.38;8381706;28;20139;-71
2022/07/19 07:43:57;;;;;;;6.75;2.80;;;;;;;22.66;46.41;99884.00;8390127;28;20051;-71
2022/07/19 07:47:58;;;;;;;4.43;2.28;;;;;;;22.86;45.53;99882.75;8370389;28;20448;-71
2022/07/19 07:51:59;;;;;;;4.63;2.60;;;;;;;22.95;46.76;99880.50;8393533;28;20044;-71
2022/07/19 07:56:03;;;;;;;12.02;2.60;;;;;;;23.20;44.19;99880.03;8379181;28;20796;-72
2022/07/19 08:00:06;;;;;;;8.18;2.92;;;;;;;23.29;44.13;99883.31;8365840;28;20049;-72
2022/07/19 08:04:07;;;;;;;6.35;2.28;;;;;;;23.46;43.69;99882.75;8389701;28;20052;-72
2022/07/19 08:08:08;;;;;;;7.60;2.45;;;;;;;23.53;43.26;99891.09;8382134;28;20063;-72
2022/07/19 08:12:09;;;;;;;7.78;2.70;;;;;;;23.66;43.06;99897.97;8388073;28;20139;-71
2022/07/19 08:16:10;;;;;;;4.40;2.20;;;;;;;23.90;41.32;99894.66;8386973;28;20179;-71
2022/07/19 08:20:12;;;;;;;8.30;2.30;;;;;;;23.99;40.40;99892.41;8371868;28;20072;-71
2022/07/19 08:24:13;;;;;;;9.25;2.10;;;;;;;24.21;39.99;99889.88;8387621;28;20080;-71
2022/07/19 08:28:14;;;;;;;6.47;2.00;;;;;;;24.37;38.28;99882.13;8386462;28;20067;-71
2022/07/19 08:32:15;;;;;;;4.05;1.95;;;;;;;24.51;39.47;99887.75;8390670;28;20044;-71
2022/07/19 08:36:16;;;;;;;8.38;2.40;;;;;;;24.56;40.78;99873.59;8374585;28;20131;-71
2022/07/19 08:40:17;;;;;;;4.40;2.33;;;;;;;24.62;40.41;99883.09;8394379;28;20041;-70
2022/07/19 08:44:19;;;;;;;4.53;1.90;;;;;;;24.81;38.38;99874.53;8381955;28;20096;-71
2022/07/19 08:48:20;;;;;;;4.70;2.13;;;;;;;24.99;37.97;99879.41;8372975;28;20409;-72
2022/07/19 08:52:22;;;;;;;4.38;2.10;;;;;;;25.17;36.84;99875.53;8386596;28;20041;-71
2022/07/19 09:00:42;;;;;;;6.65;2.10;;;;;;;25.38;38.07;99869.31;8367190;28;20048;-71
2022/07/19 09:04:56;;;;;;;9.90;2.10;;;;;;;25.50;36.94;99877.25;8367431;28;20068;-71
2022/07/19 09:09:02;;;;;;;6.82;2.40;;;;;;;25.59;37.18;99874.94;8373295;28;20044;-71
2022/07/19 09:13:08;;;;;;;5.85;2.00;;;;;;;25.78;35.93;99875.78;8374398;28;20416;-73
2022/07/19 09:17:12;;;;;;;8.02;2.38;;;;;;;25.86;36.50;99866.31;8396315;28;20124;-71
2022/07/19 09:21:13;;;;;;;7.90;2.50;;;;;;;25.96;37.19;99857.25;8385530;28;20045;-71
2022/07/19 09:25:32;;;;;;;5.82;3.10;;;;;;;26.16;36.96;99863.97;8414178;28;20056;-70
2022/07/19 09:29:35;;;;;;;7.95;2.47;;;;;;;26.27;36.54;99859.28;8380043;28;20053;-71
2022/07/19 09:33:36;;;;;;;4.72;2.05;;;;;;;26.43;36.68;99862.44;8389179;28;20083;-71
2022/07/19 09:37:39;;;;;;;5.75;2.17;;;;;;;26.60;36.55;99860.00;8388697;28;20040;-71
2022/07/19 09:41:54;;;;;;;5.78;2.30;;;;;;;26.77;35.07;99853.66;8383284;28;20385;-72
2022/07/19 09:45:55;;;;;;;10.93;2.20;;;;;;;26.86;34.78;99856.81;8398581;28;20044;-71
2022/07/19 09:49:56;;;;;;;4.93;2.20;;;;;;;26.96;35.21;99844.94;8384545;28;20082;-72
2022/07/19 09:53:57;;;;;;;4.32;2.53;;;;;;;27.09;37.08;99837.75;8398482;28;20049;-74
2022/07/19 09:58:01;;;;;;;5.05;2.80;;;;;;;27.25;33.42;99840.84;8384126;28;20515;-72
2022/07/19 10:02:02;;;;;;;6.43;2.30;;;;;;;27.26;34.54;99836.88;8408018;28;20047;-71
2022/07/19 10:06:03;;;;;;;6.93;2.30;;;;;;;27.38;33.98;99838.41;8403165;28;20492;-71
2022/07/19 10:10:07;;;;;;;5.35;2.15;;;;;;;27.40;34.17;99847.09;8383627;28;20048;-72
2022/07/19 10:14:09;;;;;;;9.00;2.47;;;;;;;27.58;34.34;99847.06;8381601;28;20043;-71
2022/07/19 10:18:20;;;;;;;5.63;2.30;;;;;;;27.78;35.34;99844.53;8382125;28;20874;-71
2022/07/19 10:22:25;;;;;;;8.52;2.75;;;;;;;27.93;34.49;99841.25;8390820;28;20052;-72
2022/07/19 10:26:34;;;;;;;12.50;2.30;;;;;;;27.97;35.17;99830.91;8379838;28;20219;-73
2022/07/19 10:30:40;;;;;;;6.07;2.58;;;;;;;27.99;34.15;99834.09;8390444;28;20059;-70
2022/07/19 10:34:42;;;;;;;4.55;2.33;;;;;;;28.09;32.28;99827.66;8392811;28;20052;-70
2022/07/19 10:39:20;;;;;;;3.85;1.90;;;;;;;28.20;34.44;99824.81;8396951;28;20534;-69
2022/07/19 10:43:21;;;;;;;5.38;2.20;;;;;;;28.34;32.70;99821.13;8375567;28;20390;-71
2022/07/19 10:47:31;;;;;;;7.45;2.42;;;;;;;28.38;32.31;99816.34;8385755;28;20124;-70
2022/07/19 10:51:34;;;;;;;6.93;2.17;;;;;;;28.49;32.10;99806.69;8396048;28;20151;-69
2022/07/19 10:55:36;;;;;;;7.00;2.40;;;;;;;28.64;32.18;99799.00;8393338;28;20504;-69
2022/07/19 10:59:41;;;;;;;4.55;1.92;;;;;;;28.69;32.41;99787.41;8395869;28;20527;-70
2022/07/19 11:03:42;;;;;;;4.82;2.08;;;;;;;28.81;31.70;99795.25;8385756;28;20048;-69
2022/07/19 11:07:48;;;;;;;5.95;2.00;;;;;;;28.83;31.91;99786.50;8385105;28;20048;-69
2022/07/19 11:11:49;;;;;;;6.72;2.05;;;;;;;28.96;31.57;99785.53;8395493;28;20136;-71
2022/07/19 11:15:57;;;;;;;4.00;2.17;;;;;;;29.00;31.43;99795.81;8393282;28;20052;-70
2022/07/19 11:20:00;;;;;;;3.92;1.92;;;;;;;29.17;30.99;99794.81;8395632;28;20499;-69
2022/07/19 11:24:01;;;;;;;7.63;2.55;;;;;;;29.24;32.36;99783.59;8392679;28;20057;-69
2022/07/19 11:28:02;;;;;;;9.07;2.20;;;;;;;29.44;31.71;99781.75;8389723;28;20052;-70
2022/07/19 11:32:05;;;;;;;6.00;2.20;;;;;;;29.49;31.66;99786.84;8388948;28;20075;-70
2022/07/19 11:36:06;;;;;;;4.72;2.95;;;;;;;29.56;30.80;99789.50;8388039;28;20137;-70
2022/07/19 11:40:12;;;;;;;7.40;2.22;;;;;;;29.71;31.05;99779.75;8386888;28;20139;-71
2022/07/19 11:44:13;;;;;;;3.97;2.00;;;;;;;29.88;31.20;99782.66;8380976;28;20048;-71
2022/07/19 11:48:25;;;;;;;9.02;2.40;;;;;;;29.98;30.92;99776.16;8329920;28;20056;-70
2022/07/19 11:52:26;;;;;;;5.18;2.25;;;;;;;30.02;29.22;99771.31;8370315;28;20044;-70
2022/07/19 11:56:32;;;;;;;6.00;2.20;;;;;;;30.03;29.77;99772.91;8392970;28;20052;-70
2022/07/19 12:00:33;;;;;;;10.60;2.42;;;;;;;30.20;30.01;99767.00;8366945;28;20076;-70
2022/07/19 12:04:36;;;;;;;14.48;2.95;;;;;;;30.38;29.87;99766.69;8395027;28;20090;-70
2022/07/19 12:08:43;;;;;;;9.43;2.38;;;;;;;30.49;30.23;99767.31;8380544;28;20068;-71
2022/07/19 12:12:44;;;;;;;4.82;2.38;;;;;;;30.66;30.85;99764.59;8392966;28;20049;-71
2022/07/19 12:16:46;;;;;;;5.75;2.10;;;;;;;30.62;29.30;99759.88;8368058;28;20477;-70
2022/07/19 12:21:25;;;;;;;3.80;2.20;;;;;;;30.69;30.47;99758.16;8393619;28;20055;-70
2022/07/19 12:25:36;;;;;;;5.15;2.13;;;;;;;30.90;30.78;99760.50;8368282;28;20053;-73
2022/07/19 12:29:40;;;;;;;5.70;2.40;;;;;;;30.99;31.02;99749.56;8374438;28;20049;-70
2022/07/19 12:33:41;;;;;;;4.78;1.95;;;;;;;30.98;28.26;99739.63;8367828;28;20082;-71
2022/07/19 12:37:47;;;;;;;6.68;2.10;;;;;;;31.05;28.71;99736.69;8395737;28;20510;-71
2022/07/19 12:42:07;;;;;;;4.32;2.03;;;;;;;31.28;28.45;99738.59;8353642;28;20044;-70
2022/07/19 12:46:08;;;;;;;6.55;2.22;;;;;;;31.29;28.68;99734.59;8386368;28;20045;-69
2022/07/19 12:50:19;;;;;;;3.28;2.50;;;;;;;31.23;28.63;99720.38;8384821;28;20044;-70
2022/07/19 12:54:20;;;;;;;4.20;2.00;;;;;;;31.39;28.64;99725.19;8390913;28;20060;-70
2022/07/19 13:02:40;;;;;;;5.03;2.10;;;;;;;31.57;29.70;99716.38;8378499;28;20052;-69
2022/07/19 13:06:41;;;;;;;5.80;2.40;;;;;;;31.70;28.93;99725.66;8381519;28;20073;-69
2022/07/19 13:10:42;;;;;;;4.43;2.22;;;;;;;31.65;28.44;99712.22;8400545;28;20496;-69
2022/07/19 13:14:43;;;;;;;7.85;2.15;;;;;;;31.75;29.58;99723.13;8400701;28;20056;-70
2022/07/19 13:18:44;;;;;;;5.55;2.08;;;;;;;31.81;29.20;99715.00;8372413;28;20041;-70
2022/07/19 13:22:45;;;;;;;4.13;1.95;;;;;;;31.87;29.33;99710.47;8386887;28;20045;-69
2022/07/19 13:26:46;;;;;;;5.97;2.08;;;;;;;31.84;29.72;99703.72;8389172;28;20063;-71
2022/07/19 13:30:47;;;;;;;6.38;2.17;;;;;;;31.85;27.92;99710.09;8366449;28;20049;-70
2022/07/19 13:34:48;;;;;;;8.60;2.72;;;;;;;31.70;26.46;99714.47;8380808;28;20063;-70
2022/07/19 13:38:49;;;;;;;3.50;1.98;;;;;;;32.12;27.18;99691.06;8392268;28;20056;-69
2022/07/19 13:42:50;;;;;;;6.68;2.13;;;;;;;33.99;25.81;99694.16;8395490;28;20048;-69
2022/07/19 13:46:51;;;;;;;6.70;2.05;;;;;;;35.10;24.49;99684.03;8371109;28;20492;-70
2022/07/19 13:50:53;;;;;;;3.33;2.00;;;;;;;36.31;22.99;99688.22;8397666;28;20055;-69
2022/07/19 13:54:53;;;;;;;12.18;2.25;;;;;;;36.44;22.27;99690.84;8398993;28;20428;-70
2022/07/19 13:58:55;;;;;;;6.15;2.05;;;;;;;35.76;23.19;99698.63;8384772;28;20053;-69
2022/07/19 14:02:55;;;;;;;6.65;2.00;;;;;;;35.33;24.36;99694.75;8383342;28;20048;-70
2022/07/19 14:06:58;;;;;;;9.27;1.90;;;;;;;35.84;23.98;99691.47;8384684;28;20052;-70
2022/07/19 14:11:00;;;;;;;5.88;2.15;;;;;;;35.12;23.57;99689.97;8385032;28;20053;-69
2022/07/19 14:15:01;;;;;;;3.90;1.98;;;;;;;34.87;24.02;99692.97;8398074;28;20049;-70
2022/07/19 14:19:02;;;;;;;6.05;2.03;;;;;;;35.88;24.53;99694.91;8392544;28;20045;-70
2022/07/19 14:23:03;;;;;;;3.33;2.00;;;;;;;36.68;23.74;99688.97;8379062;28;20056;-71
2022/07/19 14:27:04;;;;;;;3.05;2.08;;;;;;;37.81;21.99;99686.28;8378673;28;20431;-70
2022/07/19 14:31:06;;;;;;;8.98;2.20;;;;;;;39.46;20.48;99683.41;8379456;28;20044;-70
2022/07/19 14:35:07;;;;;;;5.57;2.17;;;;;;;40.85;19.96;99687.09;8374399;28;20531;-69
2022/07/19 14:39:09;;;;;;;5.57;1.95;;;;;;;41.76;18.35;99679.47;8397471;28;20045;-70
2022/07/19 14:43:09;;;;;;;6.80;2.30;;;;;;;42.43;17.77;99674.03;8390712;28;20143;-70
2022/07/19 14:47:10;;;;;;;3.58;2.05;;;;;;;42.61;16.80;99673.56;8377574;28;20076;-69
2022/07/19 14:51:11;;;;;;;6.30;2.13;;;;;;;43.51;17.76;99675.06;8389977;28;20127;-70
2022/07/19 14:55:12;;;;;;;3.92;1.90;;;;;;;44.10;16.62;99673.81;8381204;28;20051;-70
2022/07/19 14:59:13;;;;;;;6.15;2.20;;;;;;;44.31;15.29;99675.00;8387919;28;20493;-70
2022/07/19 15:03:14;;;;;;;9.30;2.17;;;;;;;44.17;15.08;99678.94;8375041;28;20049;-71
2022/07/19 15:07:15;;;;;;;5.25;2.22;;;;;;;43.92;15.63;99680.88;8395595;28;20052;-70
2022/07/19 15:11:17;;;;;;;5.35;2.20;;;;;;;43.98;15.58;99666.63;8395660;28;20412;-71
2022/07/19 15:15:18;;;;;;;3.70;2.22;;;;;;;44.35;15.35;99666.94;8395798;28;20195;-71
2022/07/19 15:19:19;;;;;;;6.70;2.33;;;;;;;44.65;14.55;99660.50;8394449;28;20135;-71
2022/07/19 15:23:20;;;;;;;4.95;2.05;;;;;;;44.47;14.72;99662.69;8395718;28;20056;-71
2022/07/19 15:27:21;;;;;;;6.60;2.22;;;;;;;44.83;14.59;99660.63;8393630;28;20340;-70
2022/07/19 15:31:24;;;;;;;3.85;2.20;;;;;;;44.69;14.79;99661.00;8391640;28;20439;-70
2022/07/19 15:35:25;;;;;;;4.95;2.20;;;;;;;44.43;15.11;99662.22;8378588;28;20044;-70
2022/07/19 15:39:25;;;;;;;8.05;2.28;;;;;;;42.92;15.33;99661.19;8392562;28;20098;-69
2022/07/19 15:43:27;;;;;;;5.47;2.42;;;;;;;41.28;17.20;99646.22;8392950;28;20044;-71
2022/07/19 15:47:28;;;;;;;7.32;2.85;;;;;;;40.21;17.84;99645.81;8368829;28;20048;-70
2022/07/19 15:51:30;;;;;;;8.70;2.55;;;;;;;38.74;18.94;99651.16;8365177;28;20052;-71
2022/07/19 15:55:31;;;;;;;10.52;2.70;;;;;;;37.52;20.06;99649.53;8383183;28;20060;-72
2022/07/19 15:59:32;;;;;;;5.18;2.67;;;;;;;36.88;20.80;99635.75;8394574;28;20052;-71
2022/07/19 16:03:33;;;;;;;6.22;2.30;;;;;;;36.09;20.87;99643.38;8392972;28;20139;-71
2022/07/19 16:07:35;;;;;;;7.10;2.22;;;;;;;35.59;21.64;99639.88;8390693;28;20049;-72
2022/07/19 16:11:36;;;;;;;5.47;2.40;;;;;;;35.39;22.52;99631.13;8385746;28;20073;-71
2022/07/19 16:15:37;;;;;;;10.40;2.45;;;;;;;35.07;23.05;99626.00;8386871;28;20049;-72
2022/07/19 16:19:38;;;;;;;4.50;2.60;;;;;;;34.92;22.65;99625.81;8393865;28;20064;-71
2022/07/19 16:23:39;;;;;;;8.32;2.25;;;;;;;34.89;22.76;99625.94;8383668;28;20060;-71
2022/07/19 16:27:41;;;;;;;4.80;2.60;;;;;;;34.18;23.30;99628.59;8394967;28;20102;-71
2022/07/19 16:31:43;;;;;;;4.43;2.40;;;;;;;33.76;23.82;99620.50;8399831;28;20420;-71
2022/07/19 16:35:44;;;;;;;5.53;2.53;;;;;;;33.40;25.18;99614.53;8392539;28;20132;-71
2022/07/19 16:39:45;;;;;;;10.93;3.00;;;;;;;33.19;25.92;99615.22;8408555;28;20044;-70
2022/07/19 16:43:46;;;;;;;5.15;2.38;;;;;;;32.87;25.91;99616.22;8391016;28;20070;-71
2022/07/19 16:47:47;;;;;;;6.15;2.53;;;;;;;32.67;26.89;99614.44;8396533;28;20098;-71
2022/07/19 16:51:48;;;;;;;25.27;3.33;;;;;;;32.35;28.22;99613.78;8395337;28;20064;-71
2022/07/19 16:55:49;;;;;;;3.67;2.60;;;;;;;32.00;29.40;99616.31;8398254;28;20131;-70
2022/07/19 16:59:50;;;;;;;6.60;2.50;;;;;;;31.68;30.29;99621.97;8400444;28;20049;-72
2022/07/19 17:03:51;;;;;;;4.65;2.33;;;;;;;31.42;30.91;99616.22;8410497;28;20495;-71
2022/07/19 17:07:52;;;;;;;5.07;2.85;;;;;;;31.16;32.51;99611.72;8376300;28;20053;-70
2022/07/19 17:11:53;;;;;;;5.55;2.60;;;;;;;30.98;32.16;99614.13;8381077;28;20045;-71
2022/07/19 17:15:54;;;;;;;5.68;3.28;;;;;;;30.85;31.53;99604.84;8369796;28;20500;-71
2022/07/19 17:19:55;;;;;;;5.93;2.90;;;;;;;30.65;32.29;99601.34;8397957;28;20052;-71
2022/07/19 17:23:57;;;;;;;3.83;2.40;;;;;;;30.40;33.21;99601.88;8388749;28;20053;-70
2022/07/19 17:27:58;;;;;;;6.80;2.78;;;;;;;30.13;34.02;99602.81;8412003;28;20057;-70
2022/07/19 17:31:59;;;;;;;7.78;2.97;;;;;;;29.84;35.34;99598.97;8394878;28;20476;-71
2022/07/19 17:36:00;;;;;;;6.18;3.17;;;;;;;29.63;35.55;99605.72;8396613;28;20407;-71
2022/07/19 17:40:01;;;;;;;5.13;3.25;;;;;;;29.46;36.06;99612.38;8394144;28;20049;-70
2022/07/19 17:44:02;;;;;;;4.82;3.22;;;;;;;29.27;36.48;99613.06;8382768;28;20048;-71
2022/07/19 17:48:04;;;;;;;7.07;3.30;;;;;;;29.16;36.45;99615.22;8377895;28;20048;-72
2022/07/19 17:52:05;;;;;;;4.68;2.85;;;;;;;28.98;36.96;99616.28;8394775;28;20486;-71
2022/07/19 17:56:06;;;;;;;5.55;3.28;;;;;;;28.79;37.70;99619.75;8374381;28;20514;-70
2022/07/19 18:00:09;;;;;;;6.07;3.10;;;;;;;28.62;38.29;99615.19;8408625;28;20537;-71
2022/07/19 18:04:10;;;;;;;4.85;3.33;;;;;;;28.45;38.75;99621.78;8388235;28;20052;-70
2022/07/19 18:08:11;;;;;;;13.05;4.10;;;;;;;28.21;39.43;99618.13;8396034;28;20052;-71
2022/07/19 18:12:12;;;;;;;6.07;2.88;;;;;;;28.01;39.79;99620.69;8394969;28;20090;-71
2022/07/19 18:16:14;;;;;;;9.88;3.50;;;;;;;27.82;40.31;99618.50;8388258;28;20047;-70
2022/07/19 18:20:15;;;;;;;7.93;2.70;;;;;;;27.59;40.48;99615.59;8383117;28;20051;-71
2022/07/19 18:24:16;;;;;;;9.65;3.63;;;;;;;27.41;41.21;99623.25;8392735;28;20045;-72
2022/07/19 18:28:17;;;;;;;7.70;3.38;;;;;;;27.16;41.35;99621.47;8378532;28;20055;-71
2022/07/19 18:32:18;;;;;;;8.90;3.42;;;;;;;26.97;41.99;99624.75;8390227;28;20098;-72
2022/07/19 18:36:19;;;;;;;12.02;5.07;;;;;;;26.76;42.46;99631.19;8394051;28;20049;-71
2022/07/19 18:40:21;;;;;;;22.38;9.45;;;;;;;26.55;43.08;99624.97;8397230;28;20502;-70
2022/07/19 18:44:21;;;;;;;23.25;11.23;;;;;;;26.30;43.92;99631.41;8388266;28;20065;-72
2022/07/19 18:48:29;;;;;;;30.25;14.88;;;;;;;26.06;45.23;99635.84;8392324;28;20182;-70
2022/07/19 18:52:30;;;;;;;26.27;14.53;;;;;;;25.81;46.03;99625.97;8393120;28;20043;-71
2022/07/19 18:56:32;;;;;;;21.48;10.85;;;;;;;25.61;46.31;99640.25;8384256;28;20310;-72
2022/07/19 19:00:32;;;;;;;14.88;8.13;;;;;;;25.39;47.32;99633.13;8384181;28;20119;-71
2022/07/19 19:04:34;;;;;;;11.18;6.38;;;;;;;25.19;48.01;99656.81;8373799;28;20067;-72